sensor_id;sensor_type;location;lat;lon;timestamp;P1;durP1;ratioP1;P2;durP2;ratioP2
84589;SDS011;76270;48.816;8.740;2024-03-23T00:54:44;3.65;;;2.20;;
84589;SDS011;76270;48.816;8.740;2024-03-23T00:56:44;4.45;;;1.98;;
84589;SDS011;76270;48.816;8.740;2024-03-23T00:58:45;5.57;;;2.20;;
84589;SDS011;76270;48.816;8.740;2024-03-23T01:00:45;4.88;;;2.33;;
84589;SDS011;76270;48.816;8.740;2024-03-23T01:02:46;4.70;;;2.33;;
84589;SDS011;76270;48.816;8.740;2024-03-23T01:04:46;5.55;;;2.60;;
84589;SDS011;76270;48.816;8.740;2024-03-23T01:06:47;7.63;;;3.15;;
84589;SDS011;76270;48.816;8.740;2024-03-23T01:08:48;5.38;;;2.72;;
84589;SDS011;76270;48.816;8.740;2024-03-23T01:10:58;5.55;;;2.80;;
84589;SDS011;76270;48.816;8.740;2024-03-23T01:12:59;5.68;;;2.97;;
84589;SDS011;76270;48.816;8.740;2024-03-23T01:15:00;6.53;;;3.13;;
84589;SDS011;76270;48.816;8.740;2024-03-23T01:17:00;6.70;;;3.00;;
84589;SDS011;76270;48.816;8.740;2024-03-23T01:19:01;5.80;;;3.08;;
84589;SDS011;76270;48.816;8.740;2024-03-23T01:21:01;5.93;;;2.80;;
84589;SDS011;76270;48.816;8.740;2024-03-23T01:23:02;5.85;;;3.00;;
84589;SDS011;76270;48.816;8.740;2024-03-23T01:25:03;6.53;;;2.90;;
84589;SDS011;76270;48.816;8.740;2024-03-23T01:27:04;5.30;;;3.03;;
84589;SDS011;76270;48.816;8.740;2024-03-23T01:29:05;7.10;;;3.15;;
84589;SDS011;76270;48.816;8.740;2024-03-23T01:31:05;6.05;;;3.45;;
84589;SDS011;76270;48.816;8.740;2024-03-23T01:33:06;9.07;;;3.65;;
84589;SDS011;76270;48.816;8.740;2024-03-23T01:35:07;8.40;;;3.47;;
84589;SDS011;76270;48.816;8.740;2024-03-23T01:37:08;9.45;;;3.65;;
84589;SDS011;76270;48.816;8.740;2024-03-23T01:39:09;7.28;;;3.00;;
84589;SDS011;76270;48.816;8.740;2024-03-23T01:41:10;9.25;;;3.08;;
84589;SDS011;76270;48.816;8.740;2024-03-23T01:43:10;9.85;;;3.78;;
84589;SDS011;76270;48.816;8.740;2024-03-23T01:45:11;8.23;;;3.45;;
84589;SDS011;76270;48.816;8.740;2024-03-23T01:47:11;9.48;;;3.70;;
84589;SDS011;76270;48.816;8.740;2024-03-23T01:49:13;9.07;;;3.60;;
84589;SDS011;76270;48.816;8.740;2024-03-23T01:51:13;9.15;;;3.55;;
84589;SDS011;76270;48.816;8.740;2024-03-23T01:53:14;7.40;;;3.00;;
84589;SDS011;76270;48.816;8.740;2024-03-23T01:55:17;6.78;;;2.80;;
84589;SDS011;76270;48.816;8.740;2024-03-23T01:57:18;6.55;;;2.70;;
84589;SDS011;76270;48.816;8.740;2024-03-23T01:59:20;6.90;;;2.60;;
84589;SDS011;76270;48.816;8.740;2024-03-23T02:01:21;5.53;;;2.08;;
84589;SDS011;76270;48.816;8.740;2024-03-23T02:03:22;4.65;;;2.30;;
84589;SDS011;76270;48.816;8.740;2024-03-23T02:05:23;4.60;;;1.73;;
84589;SDS011;76270;48.816;8.740;2024-03-23T02:07:24;6.15;;;2.30;;
84589;SDS011;76270;48.816;8.740;2024-03-23T02:09:25;3.88;;;1.90;;
84589;SDS011;76270;48.816;8.740;2024-03-23T02:11:25;5.35;;;2.28;;
84589;SDS011;76270;48.816;8.740;2024-03-23T02:13:26;3.88;;;1.75;;
84589;SDS011;76270;48.816;8.740;2024-03-23T02:15:27;6.15;;;1.90;;
84589;SDS011;76270;48.816;8.740;2024-03-23T02:17:28;3.65;;;1.77;;
84589;SDS011;76270;48.816;8.740;2024-03-23T02:19:30;5.93;;;1.52;;
84589;SDS011;76270;48.816;8.740;2024-03-23T02:21:31;4.18;;;1.67;;
84589;SDS011;76270;48.816;8.740;2024-03-23T02:23:32;3.92;;;1.70;;
84589;SDS011;76270;48.816;8.740;2024-03-23T02:25:32;4.80;;;1.70;;
84589;SDS011;76270;48.816;8.740;2024-03-23T02:27:33;4.22;;;1.90;;
84589;SDS011;76270;48.816;8.740;2024-03-23T02:29:36;4.47;;;1.73;;
84589;SDS011;76270;48.816;8.740;2024-03-23T02:31:36;3.75;;;1.75;;
84589;SDS011;76270;48.816;8.740;2024-03-23T02:33:37;3.70;;;1.75;;
84589;SDS011;76270;48.816;8.740;2024-03-23T02:35:38;5.50;;;1.77;;
84589;SDS011;76270;48.816;8.740;2024-03-23T02:37:39;5.13;;;1.38;;
84589;SDS011;76270;48.816;8.740;2024-03-23T02:39:39;2.85;;;1.52;;
84589;SDS011;76270;48.816;8.740;2024-03-23T02:41:40;4.00;;;1.70;;
84589;SDS011;76270;48.816;8.740;2024-03-23T02:43:40;3.53;;;1.50;;
84589;SDS011;76270;48.816;8.740;2024-03-23T02:45:41;3.15;;;1.50;;
84589;SDS011;76270;48.816;8.740;2024-03-23T02:47:42;2.92;;;1.50;;
84589;SDS011;76270;48.816;8.740;2024-03-23T02:49:42;3.50;;;1.50;;
84589;SDS011;76270;48.816;8.740;2024-03-23T02:51:43;3.65;;;1.50;;
84589;SDS011;76270;48.816;8.740;2024-03-23T02:53:45;3.80;;;1.70;;
84589;SDS011;76270;48.816;8.740;2024-03-23T02:55:46;4.50;;;1.50;;
84589;SDS011;76270;48.816;8.740;2024-03-23T02:57:47;4.57;;;1.80;;
84589;SDS011;76270;48.816;8.740;2024-03-23T02:59:47;4.05;;;1.80;;
84589;SDS011;76270;48.816;8.740;2024-03-23T03:01:48;2.80;;;1.40;;
84589;SDS011;76270;48.816;8.740;2024-03-23T03:03:49;3.25;;;1.48;;
84589;SDS011;76270;48.816;8.740;2024-03-23T03:05:54;2.97;;;1.50;;
84589;SDS011;76270;48.816;8.740;2024-03-23T03:07:55;3.33;;;1.50;;
84589;SDS011;76270;48.816;8.740;2024-03-23T03:09:56;3.58;;;1.50;;
84589;SDS011;76270;48.816;8.740;2024-03-23T03:11:56;3.45;;;1.30;;
84589;SDS011;76270;48.816;8.740;2024-03-23T03:13:57;5.10;;;1.52;;
84589;SDS011;76270;48.816;8.740;2024-03-23T03:16:00;2.85;;;1.35;;
84589;SDS011;76270;48.816;8.740;2024-03-23T03:18:01;2.53;;;1.30;;
84589;SDS011;76270;48.816;8.740;2024-03-23T03:20:01;4.05;;;1.73;;
84589;SDS011;76270;48.816;8.740;2024-03-23T03:22:02;2.53;;;1.48;;
84589;SDS011;76270;48.816;8.740;2024-03-23T03:24:05;3.50;;;1.65;;
84589;SDS011;76270;48.816;8.740;2024-03-23T03:26:06;4.13;;;1.50;;
84589;SDS011;76270;48.816;8.740;2024-03-23T03:28:07;4.18;;;1.63;;
84589;SDS011;76270;48.816;8.740;2024-03-23T03:30:08;4.38;;;1.92;;
84589;SDS011;76270;48.816;8.740;2024-03-23T03:32:09;3.00;;;1.33;;
84589;SDS011;76270;48.816;8.740;2024-03-23T03:34:09;4.57;;;1.70;;
84589;SDS011;76270;48.816;8.740;2024-03-23T03:36:10;4.82;;;1.80;;
84589;SDS011;76270;48.816;8.740;2024-03-23T03:38:11;3.90;;;1.77;;
84589;SDS011;76270;48.816;8.740;2024-03-23T03:40:12;3.78;;;1.63;;
84589;SDS011;76270;48.816;8.740;2024-03-23T03:42:12;6.15;;;2.20;;
84589;SDS011;76270;48.816;8.740;2024-03-23T03:44:13;4.80;;;1.85;;
84589;SDS011;76270;48.816;8.740;2024-03-23T03:46:13;3.03;;;1.60;;
84589;SDS011;76270;48.816;8.740;2024-03-23T03:48:14;3.97;;;1.65;;
84589;SDS011;76270;48.816;8.740;2024-03-23T03:50:15;4.00;;;1.70;;
84589;SDS011;76270;48.816;8.740;2024-03-23T03:52:16;3.70;;;1.75;;
84589;SDS011;76270;48.816;8.740;2024-03-23T03:54:16;7.03;;;2.40;;
84589;SDS011;76270;48.816;8.740;2024-03-23T03:56:17;4.43;;;2.05;;
84589;SDS011;76270;48.816;8.740;2024-03-23T03:58:18;5.43;;;2.90;;
84589;SDS011;76270;48.816;8.740;2024-03-23T04:00:18;6.10;;;2.50;;
84589;SDS011;76270;48.816;8.740;2024-03-23T04:03:20;8.38;;;3.15;;
84589;SDS011;76270;48.816;8.740;2024-03-23T04:06:21;11.02;;;5.50;;
84589;SDS011;76270;48.816;8.740;2024-03-23T04:09:22;12.73;;;6.32;;
84589;SDS011;76270;48.816;8.740;2024-03-23T04:11:23;14.98;;;7.72;;
84589;SDS011;76270;48.816;8.740;2024-03-23T04:13:23;14.15;;;7.78;;
84589;SDS011;76270;48.816;8.740;2024-03-23T04:15:24;15.82;;;8.38;;
84589;SDS011;76270;48.816;8.740;2024-03-23T04:17:25;8.82;;;5.00;;
84589;SDS011;76270;48.816;8.740;2024-03-23T04:19:26;6.47;;;3.70;;
84589;SDS011;76270;48.816;8.740;2024-03-23T04:21:26;17.77;;;8.13;;
84589;SDS011;76270;48.816;8.740;2024-03-23T04:23:27;15.65;;;7.90;;
84589;SDS011;76270;48.816;8.740;2024-03-23T04:25:27;14.30;;;5.97;;
84589;SDS011;76270;48.816;8.740;2024-03-23T04:27:28;14.55;;;6.38;;
84589;SDS011;76270;48.816;8.740;2024-03-23T04:29:28;21.08;;;10.77;;
84589;SDS011;76270;48.816;8.740;2024-03-23T04:31:29;21.85;;;10.82;;
84589;SDS011;76270;48.816;8.740;2024-03-23T04:33:29;27.10;;;12.18;;
84589;SDS011;76270;48.816;8.740;2024-03-23T04:35:30;20.42;;;10.10;;
84589;SDS011;76270;48.816;8.740;2024-03-23T04:37:31;16.65;;;8.40;;
84589;SDS011;76270;48.816;8.740;2024-03-23T04:39:37;15.75;;;7.93;;
84589;SDS011;76270;48.816;8.740;2024-03-23T04:41:39;16.70;;;8.50;;
84589;SDS011;76270;48.816;8.740;2024-03-23T04:43:39;15.50;;;7.43;;
84589;SDS011;76270;48.816;8.740;2024-03-23T04:45:40;21.48;;;10.48;;
84589;SDS011;76270;48.816;8.740;2024-03-23T04:47:41;19.48;;;9.10;;
84589;SDS011;76270;48.816;8.740;2024-03-23T04:49:42;15.90;;;8.23;;
84589;SDS011;76270;48.816;8.740;2024-03-23T04:51:42;24.67;;;11.52;;
84589;SDS011;76270;48.816;8.740;2024-03-23T04:53:46;24.58;;;12.05;;
84589;SDS011;76270;48.816;8.740;2024-03-23T04:55:46;28.60;;;12.43;;
84589;SDS011;76270;48.816;8.740;2024-03-23T04:57:47;15.95;;;8.35;;
84589;SDS011;76270;48.816;8.740;2024-03-23T04:59:47;28.88;;;12.23;;
84589;SDS011;76270;48.816;8.740;2024-03-23T05:01:48;25.73;;;11.85;;
84589;SDS011;76270;48.816;8.740;2024-03-23T05:03:49;20.98;;;9.48;;
84589;SDS011;76270;48.816;8.740;2024-03-23T05:05:49;20.00;;;8.77;;
84589;SDS011;76270;48.816;8.740;2024-03-23T05:07:51;19.45;;;7.55;;
84589;SDS011;76270;48.816;8.740;2024-03-23T05:09:51;18.65;;;8.55;;
84589;SDS011;76270;48.816;8.740;2024-03-23T05:11:52;14.38;;;7.63;;
84589;SDS011;76270;48.816;8.740;2024-03-23T05:13:52;22.40;;;9.27;;
84589;SDS011;76270;48.816;8.740;2024-03-23T05:15:53;13.38;;;6.03;;
84589;SDS011;76270;48.816;8.740;2024-03-23T05:17:54;17.10;;;7.60;;
84589;SDS011;76270;48.816;8.740;2024-03-23T05:19:55;14.73;;;7.72;;
84589;SDS011;76270;48.816;8.740;2024-03-23T05:21:56;18.67;;;8.60;;
84589;SDS011;76270;48.816;8.740;2024-03-23T05:23:56;20.33;;;8.63;;
84589;SDS011;76270;48.816;8.740;2024-03-23T05:25:57;21.05;;;8.93;;
84589;SDS011;76270;48.816;8.740;2024-03-23T05:27:57;21.80;;;8.70;;
84589;SDS011;76270;48.816;8.740;2024-03-23T05:30:56;20.23;;;8.25;;
84589;SDS011;76270;48.816;8.740;2024-03-23T05:32:57;16.77;;;6.95;;
84589;SDS011;76270;48.816;8.740;2024-03-23T05:34:57;15.02;;;6.65;;
84589;SDS011;76270;48.816;8.740;2024-03-23T05:36:58;14.52;;;5.63;;
84589;SDS011;76270;48.816;8.740;2024-03-23T05:38:59;14.20;;;5.85;;
84589;SDS011;76270;48.816;8.740;2024-03-23T05:40:59;9.20;;;4.28;;
84589;SDS011;76270;48.816;8.740;2024-03-23T05:43:00;8.90;;;3.38;;
84589;SDS011;76270;48.816;8.740;2024-03-23T05:45:01;8.57;;;3.63;;
84589;SDS011;76270;48.816;8.740;2024-03-23T05:47:01;7.47;;;3.08;;
84589;SDS011;76270;48.816;8.740;2024-03-23T05:50:00;6.78;;;2.17;;
84589;SDS011;76270;48.816;8.740;2024-03-23T05:53:00;6.80;;;2.63;;
84589;SDS011;76270;48.816;8.740;2024-03-23T05:56:00;8.52;;;3.42;;
84589;SDS011;76270;48.816;8.740;2024-03-23T05:58:59;5.22;;;2.38;;
84589;SDS011;76270;48.816;8.740;2024-03-23T06:01:58;6.95;;;2.38;;
84589;SDS011;76270;48.816;8.740;2024-03-23T06:04:57;3.83;;;1.90;;
84589;SDS011;76270;48.816;8.740;2024-03-23T06:07:56;3.47;;;1.55;;
84589;SDS011;76270;48.816;8.740;2024-03-23T06:10:56;3.10;;;1.35;;
84589;SDS011;76270;48.816;8.740;2024-03-23T06:13:55;4.38;;;1.55;;
84589;SDS011;76270;48.816;8.740;2024-03-23T06:16:54;2.30;;;0.82;;
84589;SDS011;76270;48.816;8.740;2024-03-23T06:19:53;2.60;;;0.77;;
84589;SDS011;76270;48.816;8.740;2024-03-23T06:22:52;1.80;;;0.70;;
84589;SDS011;76270;48.816;8.740;2024-03-23T06:25:52;1.98;;;0.80;;
84589;SDS011;76270;48.816;8.740;2024-03-23T06:28:51;3.17;;;1.15;;
84589;SDS011;76270;48.816;8.740;2024-03-23T06:31:54;2.20;;;0.90;;
84589;SDS011;76270;48.816;8.740;2024-03-23T06:34:53;1.92;;;0.85;;
84589;SDS011;76270;48.816;8.740;2024-03-23T06:37:53;2.42;;;0.90;;
84589;SDS011;76270;48.816;8.740;2024-03-23T06:40:52;2.33;;;0.70;;
84589;SDS011;76270;48.816;8.740;2024-03-23T06:43:53;1.70;;;0.65;;
84589;SDS011;76270;48.816;8.740;2024-03-23T06:46:52;1.67;;;0.60;;
84589;SDS011;76270;48.816;8.740;2024-03-23T06:49:52;1.13;;;0.43;;
84589;SDS011;76270;48.816;8.740;2024-03-23T06:52:55;1.30;;;0.60;;
84589;SDS011;76270;48.816;8.740;2024-03-23T06:55:54;2.00;;;0.50;;
84589;SDS011;76270;48.816;8.740;2024-03-23T06:58:53;1.70;;;0.65;;
84589;SDS011;76270;48.816;8.740;2024-03-23T07:01:52;2.03;;;0.40;;
84589;SDS011;76270;48.816;8.740;2024-03-23T07:04:52;2.75;;;0.70;;
84589;SDS011;76270;48.816;8.740;2024-03-23T07:07:51;1.98;;;0.60;;
84589;SDS011;76270;48.816;8.740;2024-03-23T07:10:50;1.55;;;0.57;;
84589;SDS011;76270;48.816;8.740;2024-03-23T07:13:49;1.50;;;0.65;;
84589;SDS011;76270;48.816;8.740;2024-03-23T07:16:49;1.40;;;0.38;;
84589;SDS011;76270;48.816;8.740;2024-03-23T07:19:48;1.00;;;0.47;;
84589;SDS011;76270;48.816;8.740;2024-03-23T07:22:57;1.20;;;0.50;;
84589;SDS011;76270;48.816;8.740;2024-03-23T07:25:59;1.48;;;0.63;;
84589;SDS011;76270;48.816;8.740;2024-03-23T07:28:58;2.03;;;0.60;;
84589;SDS011;76270;48.816;8.740;2024-03-23T07:31:57;1.40;;;0.52;;
84589;SDS011;76270;48.816;8.740;2024-03-23T07:34:56;1.92;;;0.40;;
84589;SDS011;76270;48.816;8.740;2024-03-23T07:37:56;1.60;;;0.60;;
84589;SDS011;76270;48.816;8.740;2024-03-23T07:41:05;1.73;;;0.60;;
84589;SDS011;76270;48.816;8.740;2024-03-23T07:43:47;1.50;;;0.60;;
84589;SDS011;76270;48.816;8.740;2024-03-23T07:46:46;1.92;;;0.50;;
84589;SDS011;76270;48.816;8.740;2024-03-23T07:49:46;1.77;;;0.60;;
84589;SDS011;76270;48.816;8.740;2024-03-23T07:52:45;2.13;;;0.77;;
84589;SDS011;76270;48.816;8.740;2024-03-23T07:55:51;2.08;;;0.80;;
84589;SDS011;76270;48.816;8.740;2024-03-23T07:58:51;2.40;;;1.00;;
84589;SDS011;76270;48.816;8.740;2024-03-23T08:01:50;2.42;;;0.80;;
84589;SDS011;76270;48.816;8.740;2024-03-23T08:04:51;2.53;;;1.05;;
84589;SDS011;76270;48.816;8.740;2024-03-23T08:07:02;2.80;;;1.05;;
84589;SDS011;76270;48.816;8.740;2024-03-23T08:09:03;2.50;;;1.00;;
84589;SDS011;76270;48.816;8.740;2024-03-23T08:11:04;6.75;;;1.50;;
84589;SDS011;76270;48.816;8.740;2024-03-23T08:13:05;2.60;;;1.10;;
84589;SDS011;76270;48.816;8.740;2024-03-23T08:15:06;3.03;;;1.38;;
84589;SDS011;76270;48.816;8.740;2024-03-23T08:17:07;3.72;;;1.20;;
84589;SDS011;76270;48.816;8.740;2024-03-23T08:19:07;3.67;;;1.00;;
84589;SDS011;76270;48.816;8.740;2024-03-23T08:21:09;2.63;;;1.30;;
84589;SDS011;76270;48.816;8.740;2024-03-23T08:23:09;3.75;;;1.20;;
84589;SDS011;76270;48.816;8.740;2024-03-23T08:25:10;3.13;;;1.15;;
84589;SDS011;76270;48.816;8.740;2024-03-23T08:27:10;4.40;;;1.27;;
84589;SDS011;76270;48.816;8.740;2024-03-23T08:29:12;3.90;;;1.20;;
84589;SDS011;76270;48.816;8.740;2024-03-23T08:31:12;3.20;;;1.10;;
84589;SDS011;76270;48.816;8.740;2024-03-23T08:33:15;3.75;;;1.20;;
84589;SDS011;76270;48.816;8.740;2024-03-23T08:35:16;2.97;;;1.15;;
84589;SDS011;76270;48.816;8.740;2024-03-23T08:37:16;7.50;;;1.60;;
84589;SDS011;76270;48.816;8.740;2024-03-23T08:39:17;4.40;;;1.40;;
84589;SDS011;76270;48.816;8.740;2024-03-23T08:41:17;7.65;;;1.70;;
84589;SDS011;76270;48.816;8.740;2024-03-23T08:43:18;4.03;;;1.70;;
84589;SDS011;76270;48.816;8.740;2024-03-23T08:45:19;6.15;;;1.83;;
84589;SDS011;76270;48.816;8.740;2024-03-23T08:47:20;6.30;;;1.45;;
84589;SDS011;76270;48.816;8.740;2024-03-23T08:49:20;5.50;;;1.88;;
84589;SDS011;76270;48.816;8.740;2024-03-23T08:51:21;3.00;;;1.40;;
84589;SDS011;76270;48.816;8.740;2024-03-23T08:53:21;6.28;;;1.73;;
84589;SDS011;76270;48.816;8.740;2024-03-23T08:55:22;4.97;;;1.73;;
84589;SDS011;76270;48.816;8.740;2024-03-23T08:57:23;5.65;;;2.22;;
84589;SDS011;76270;48.816;8.740;2024-03-23T08:59:23;8.07;;;2.05;;
84589;SDS011;76270;48.816;8.740;2024-03-23T09:01:24;6.43;;;2.30;;
84589;SDS011;76270;48.816;8.740;2024-03-23T09:03:24;4.53;;;2.15;;
84589;SDS011;76270;48.816;8.740;2024-03-23T09:05:26;4.97;;;1.33;;
84589;SDS011;76270;48.816;8.740;2024-03-23T09:07:26;3.08;;;1.25;;
84589;SDS011;76270;48.816;8.740;2024-03-23T09:09:27;6.25;;;2.30;;
84589;SDS011;76270;48.816;8.740;2024-03-23T09:11:27;5.30;;;2.50;;
84589;SDS011;76270;48.816;8.740;2024-03-23T09:13:28;8.55;;;2.38;;
84589;SDS011;76270;48.816;8.740;2024-03-23T09:15:28;7.13;;;2.55;;
84589;SDS011;76270;48.816;8.740;2024-03-23T09:17:29;6.80;;;1.80;;
84589;SDS011;76270;48.816;8.740;2024-03-23T09:19:29;6.40;;;2.05;;
84589;SDS011;76270;48.816;8.740;2024-03-23T09:21:30;8.63;;;2.50;;
84589;SDS011;76270;48.816;8.740;2024-03-23T09:23:31;8.68;;;2.80;;
84589;SDS011;76270;48.816;8.740;2024-03-23T09:25:31;8.32;;;2.65;;
84589;SDS011;76270;48.816;8.740;2024-03-23T09:27:32;5.35;;;2.60;;
84589;SDS011;76270;48.816;8.740;2024-03-23T09:29:32;8.60;;;2.95;;
84589;SDS011;76270;48.816;8.740;2024-03-23T09:31:33;8.05;;;2.75;;
84589;SDS011;76270;48.816;8.740;2024-03-23T09:33:34;7.55;;;2.50;;
84589;SDS011;76270;48.816;8.740;2024-03-23T09:35:42;9.90;;;2.70;;
84589;SDS011;76270;48.816;8.740;2024-03-23T09:37:44;10.70;;;3.33;;
84589;SDS011;76270;48.816;8.740;2024-03-23T09:39:45;10.25;;;2.30;;
84589;SDS011;76270;48.816;8.740;2024-03-23T09:41:46;6.28;;;2.53;;
84589;SDS011;76270;48.816;8.740;2024-03-23T09:43:46;6.15;;;2.20;;
84589;SDS011;76270;48.816;8.740;2024-03-23T09:45:49;6.63;;;2.05;;
84589;SDS011;76270;48.816;8.740;2024-03-23T09:47:49;7.07;;;2.80;;
84589;SDS011;76270;48.816;8.740;2024-03-23T09:49:51;6.63;;;2.10;;
84589;SDS011;76270;48.816;8.740;2024-03-23T09:51:52;7.35;;;2.20;;
84589;SDS011;76270;48.816;8.740;2024-03-23T09:53:55;8.90;;;2.53;;
84589;SDS011;76270;48.816;8.740;2024-03-23T09:55:56;3.95;;;1.80;;
84589;SDS011;76270;48.816;8.740;2024-03-23T09:57:57;7.53;;;2.17;;
84589;SDS011;76270;48.816;8.740;2024-03-23T09:59:58;6.35;;;2.58;;
84589;SDS011;76270;48.816;8.740;2024-03-23T10:01:58;5.95;;;1.88;;
84589;SDS011;76270;48.816;8.740;2024-03-23T10:03:59;7.30;;;2.40;;
84589;SDS011;76270;48.816;8.740;2024-03-23T10:06:00;7.55;;;2.50;;
84589;SDS011;76270;48.816;8.740;2024-03-23T10:08:16;9.05;;;2.50;;
84589;SDS011;76270;48.816;8.740;2024-03-23T10:10:19;9.88;;;2.72;;
84589;SDS011;76270;48.816;8.740;2024-03-23T10:12:22;4.82;;;2.10;;
84589;SDS011;76270;48.816;8.740;2024-03-23T10:14:28;7.10;;;2.10;;
84589;SDS011;76270;48.816;8.740;2024-03-23T10:16:30;7.22;;;2.53;;
84589;SDS011;76270;48.816;8.740;2024-03-23T10:18:30;7.95;;;2.65;;
84589;SDS011;76270;48.816;8.740;2024-03-23T10:20:32;9.00;;;3.00;;
84589;SDS011;76270;48.816;8.740;2024-03-23T10:22:36;9.63;;;2.65;;
84589;SDS011;76270;48.816;8.740;2024-03-23T10:24:39;9.98;;;2.40;;
84589;SDS011;76270;48.816;8.740;2024-03-23T10:26:39;6.50;;;2.38;;
84589;SDS011;76270;48.816;8.740;2024-03-23T10:28:59;6.18;;;2.53;;
84589;SDS011;76270;48.816;8.740;2024-03-23T10:31:04;6.13;;;2.60;;
84589;SDS011;76270;48.816;8.740;2024-03-23T10:33:12;9.23;;;2.45;;
84589;SDS011;76270;48.816;8.740;2024-03-23T10:35:14;5.93;;;2.03;;
84589;SDS011;76270;48.816;8.740;2024-03-23T10:37:16;5.18;;;1.88;;
84589;SDS011;76270;48.816;8.740;2024-03-23T10:39:17;4.45;;;1.77;;
84589;SDS011;76270;48.816;8.740;2024-03-23T10:41:20;5.90;;;2.00;;
84589;SDS011;76270;48.816;8.740;2024-03-23T10:43:21;4.88;;;2.08;;
84589;SDS011;76270;48.816;8.740;2024-03-23T10:45:22;6.25;;;2.42;;
84589;SDS011;76270;48.816;8.740;2024-03-23T10:47:22;7.70;;;2.33;;
84589;SDS011;76270;48.816;8.740;2024-03-23T10:49:23;5.38;;;2.10;;
84589;SDS011;76270;48.816;8.740;2024-03-23T10:51:26;5.63;;;1.75;;
84589;SDS011;76270;48.816;8.740;2024-03-23T10:53:27;5.38;;;2.00;;
84589;SDS011;76270;48.816;8.740;2024-03-23T10:55:28;3.72;;;1.70;;
84589;SDS011;76270;48.816;8.740;2024-03-23T10:59:41;6.00;;;1.33;;
84589;SDS011;76270;48.816;8.740;2024-03-23T11:01:53;4.60;;;1.30;;
84589;SDS011;76270;48.816;8.740;2024-03-23T11:03:55;5.00;;;1.45;;
84589;SDS011;76270;48.816;8.740;2024-03-23T11:05:55;3.35;;;1.30;;
84589;SDS011;76270;48.816;8.740;2024-03-23T11:07:56;3.42;;;1.23;;
84589;SDS011;76270;48.816;8.740;2024-03-23T11:09:57;6.03;;;1.35;;
84589;SDS011;76270;48.816;8.740;2024-03-23T11:11:58;3.80;;;1.30;;
84589;SDS011;76270;48.816;8.740;2024-03-23T11:14:25;2.67;;;1.20;;
84589;SDS011;76270;48.816;8.740;2024-03-23T11:16:26;3.85;;;1.25;;
84589;SDS011;76270;48.816;8.740;2024-03-23T11:18:32;3.78;;;1.20;;
84589;SDS011;76270;48.816;8.740;2024-03-23T11:20:33;2.95;;;1.15;;
84589;SDS011;76270;48.816;8.740;2024-03-23T11:24:47;3.67;;;1.00;;
84589;SDS011;76270;48.816;8.740;2024-03-23T11:26:50;2.85;;;1.00;;
84589;SDS011;76270;48.816;8.740;2024-03-23T11:28:52;2.83;;;1.15;;
84589;SDS011;76270;48.816;8.740;2024-03-23T11:31:09;3.53;;;1.20;;
84589;SDS011;76270;48.816;8.740;2024-03-23T11:33:11;2.25;;;0.82;;
84589;SDS011;76270;48.816;8.740;2024-03-23T11:35:25;3.35;;;0.80;;
84589;SDS011;76270;48.816;8.740;2024-03-23T11:37:29;3.55;;;1.00;;
84589;SDS011;76270;48.816;8.740;2024-03-23T11:39:29;8.50;;;1.20;;
84589;SDS011;76270;48.816;8.740;2024-03-23T11:41:30;4.03;;;0.90;;
84589;SDS011;76270;48.816;8.740;2024-03-23T11:43:31;3.63;;;0.80;;
84589;SDS011;76270;48.816;8.740;2024-03-23T11:45:35;3.95;;;0.95;;
84589;SDS011;76270;48.816;8.740;2024-03-23T11:47:37;4.50;;;1.10;;
84589;SDS011;76270;48.816;8.740;2024-03-23T11:49:38;7.22;;;1.17;;
84589;SDS011;76270;48.816;8.740;2024-03-23T11:51:41;3.10;;;0.93;;
84589;SDS011;76270;48.816;8.740;2024-03-23T11:53:41;5.32;;;1.10;;
84589;SDS011;76270;48.816;8.740;2024-03-23T11:57:48;6.10;;;1.67;;
84589;SDS011;76270;48.816;8.740;2024-03-23T11:59:49;5.60;;;1.08;;
84589;SDS011;76270;48.816;8.740;2024-03-23T12:01:50;4.30;;;0.90;;
84589;SDS011;76270;48.816;8.740;2024-03-23T12:03:50;3.58;;;0.95;;
84589;SDS011;76270;48.816;8.740;2024-03-23T12:06:06;4.63;;;1.00;;
84589;SDS011;76270;48.816;8.740;2024-03-23T12:08:17;4.57;;;1.27;;
84589;SDS011;76270;48.816;8.740;2024-03-23T12:10:22;5.80;;;1.40;;
84589;SDS011;76270;48.816;8.740;2024-03-23T12:12:23;3.63;;;1.05;;
84589;SDS011;76270;48.816;8.740;2024-03-23T12:14:25;5.43;;;1.42;;
84589;SDS011;76270;48.816;8.740;2024-03-23T12:16:26;7.57;;;1.80;;
84589;SDS011;76270;48.816;8.740;2024-03-23T12:18:27;5.82;;;0.95;;
84589;SDS011;76270;48.816;8.740;2024-03-23T12:20:28;5.25;;;1.17;;
84589;SDS011;76270;48.816;8.740;2024-03-23T12:22:28;5.72;;;1.65;;
84589;SDS011;76270;48.816;8.740;2024-03-23T12:24:32;6.00;;;1.05;;
84589;SDS011;76270;48.816;8.740;2024-03-23T12:26:36;5.20;;;1.27;;
84589;SDS011;76270;48.816;8.740;2024-03-23T12:28:37;7.95;;;1.50;;
84589;SDS011;76270;48.816;8.740;2024-03-23T12:30:39;8.75;;;1.70;;
84589;SDS011;76270;48.816;8.740;2024-03-23T12:32:40;8.82;;;1.80;;
84589;SDS011;76270;48.816;8.740;2024-03-23T12:34:40;8.15;;;1.95;;
84589;SDS011;76270;48.816;8.740;2024-03-23T12:36:41;6.45;;;1.95;;
84589;SDS011;76270;48.816;8.740;2024-03-23T12:38:42;7.07;;;1.92;;
84589;SDS011;76270;48.816;8.740;2024-03-23T12:40:47;5.55;;;1.20;;
84589;SDS011;76270;48.816;8.740;2024-03-23T12:42:49;4.97;;;1.10;;
84589;SDS011;76270;48.816;8.740;2024-03-23T12:44:49;8.40;;;1.50;;
84589;SDS011;76270;48.816;8.740;2024-03-23T12:46:50;8.40;;;1.63;;
84589;SDS011;76270;48.816;8.740;2024-03-23T12:48:50;3.40;;;1.05;;
84589;SDS011;76270;48.816;8.740;2024-03-23T12:50:54;6.15;;;1.38;;
84589;SDS011;76270;48.816;8.740;2024-03-23T12:52:55;5.63;;;1.20;;
84589;SDS011;76270;48.816;8.740;2024-03-23T12:54:55;10.38;;;1.55;;
84589;SDS011;76270;48.816;8.740;2024-03-23T12:56:56;3.83;;;1.42;;
84589;SDS011;76270;48.816;8.740;2024-03-23T12:58:57;7.35;;;1.30;;
84589;SDS011;76270;48.816;8.740;2024-03-23T13:00:58;7.75;;;1.50;;
84589;SDS011;76270;48.816;8.740;2024-03-23T13:02:59;5.60;;;1.50;;
84589;SDS011;76270;48.816;8.740;2024-03-23T13:04:59;8.43;;;1.50;;
84589;SDS011;76270;48.816;8.740;2024-03-23T13:07:00;5.95;;;1.30;;
84589;SDS011;76270;48.816;8.740;2024-03-23T13:09:03;8.02;;;1.70;;
84589;SDS011;76270;48.816;8.740;2024-03-23T13:11:04;6.45;;;1.30;;
84589;SDS011;76270;48.816;8.740;2024-03-23T13:13:05;6.93;;;1.40;;
84589;SDS011;76270;48.816;8.740;2024-03-23T13:15:08;5.30;;;1.20;;
84589;SDS011;76270;48.816;8.740;2024-03-23T13:17:09;4.80;;;1.20;;
84589;SDS011;76270;48.816;8.740;2024-03-23T13:19:10;4.82;;;1.55;;
84589;SDS011;76270;48.816;8.740;2024-03-23T13:21:10;6.75;;;1.00;;
84589;SDS011;76270;48.816;8.740;2024-03-23T13:23:11;9.55;;;1.25;;
84589;SDS011;76270;48.816;8.740;2024-03-23T13:25:11;5.20;;;1.40;;
84589;SDS011;76270;48.816;8.740;2024-03-23T13:27:13;4.65;;;1.10;;
84589;SDS011;76270;48.816;8.740;2024-03-23T13:29:14;4.30;;;1.23;;
84589;SDS011;76270;48.816;8.740;2024-03-23T13:31:14;7.32;;;1.45;;
84589;SDS011;76270;48.816;8.740;2024-03-23T13:33:15;4.60;;;1.10;;
84589;SDS011;76270;48.816;8.740;2024-03-23T13:35:16;4.18;;;1.00;;
84589;SDS011;76270;48.816;8.740;2024-03-23T13:37:16;8.00;;;1.63;;
84589;SDS011;76270;48.816;8.740;2024-03-23T13:39:17;3.47;;;0.90;;
84589;SDS011;76270;48.816;8.740;2024-03-23T13:41:17;3.80;;;1.00;;
84589;SDS011;76270;48.816;8.740;2024-03-23T13:43:18;5.10;;;1.23;;
84589;SDS011;76270;48.816;8.740;2024-03-23T13:45:19;6.95;;;1.40;;
84589;SDS011;76270;48.816;8.740;2024-03-23T13:47:20;5.72;;;1.45;;
84589;SDS011;76270;48.816;8.740;2024-03-23T13:49:27;3.53;;;1.10;;
84589;SDS011;76270;48.816;8.740;2024-03-23T13:51:28;6.47;;;1.02;;
84589;SDS011;76270;48.816;8.740;2024-03-23T13:53:29;6.55;;;1.30;;
84589;SDS011;76270;48.816;8.740;2024-03-23T13:55:31;6.43;;;1.00;;
84589;SDS011;76270;48.816;8.740;2024-03-23T13:57:31;5.18;;;1.08;;
84589;SDS011;76270;48.816;8.740;2024-03-23T13:59:32;4.63;;;0.90;;